Time;durP1;ratioP1;P1;durP2;ratioP2;P2;SDS_P1;SDS_P2;PMS_P1;PMS_P2;Temp;Humidity;BMP_temperature;BMP_pressure;BME280_temperature;BME280_humidity;BME280_pressure;Samples;Min_cycle;Max_cycle;Signal;HPM_P1;HPM_P2
2023/04/11 00:01:02;;;;;;;32.78;3.60;;;;;;;-142.75;100.00;76824.22;5014162;28;20088;-66
2023/04/11 00:03:27;;;;;;;17.80;3.13;;;;;;;-142.75;100.00;76822.25;5033170;22;20099;-66
2023/04/11 00:05:53;;;;;;;21.27;3.25;;;;;;;-142.75;100.00;76839.97;5033391;28;20496;-66
2023/04/11 00:08:18;;;;;;;29.05;3.75;;;;;;;-142.75;100.00;76832.09;5033494;28;20067;-66
2023/04/11 00:10:43;;;;;;;27.42;3.53;;;;;;;-142.75;100.00;76832.09;5034013;28;20104;-67
2023/04/11 00:13:09;;;;;;;20.08;3.53;;;;;;;-142.75;100.00;76839.97;5033742;28;20022;-66
2023/04/11 00:15:35;;;;;;;22.05;3.58;;;;;;;-142.75;100.00;76849.81;5033865;28;20481;-66
2023/04/11 00:18:00;;;;;;;22.52;3.90;;;;;;;-142.75;100.00;76839.97;5033653;28;20017;-66
2023/04/11 00:20:25;;;;;;;18.13;3.50;;;;;;;-142.75;100.00;76851.78;5033616;28;20021;-66
2023/04/11 00:22:53;;;;;;;17.65;3.50;;;;;;;-142.75;100.00;76847.84;5033396;28;20021;-66
2023/04/11 00:25:19;;;;;;;21.63;3.67;;;;;;;-142.75;100.00;76849.81;5015953;28;20503;-66
2023/04/11 00:27:44;;;;;;;16.30;2.78;;;;;;;-142.75;100.00;76869.50;5033374;28;20038;-66
2023/04/11 00:30:10;;;;;;;22.10;2.25;;;;;;;-142.75;100.00;76863.59;5033540;28;20496;-66
2023/04/11 00:32:35;;;;;;;14.40;2.38;;;;;;;-142.75;100.00;76875.41;5033339;28;20100;-66
2023/04/11 00:35:01;;;;;;;19.95;2.58;;;;;;;-142.75;100.00;76881.31;5033183;28;20096;-66
2023/04/11 00:37:26;;;;;;;15.80;2.63;;;;;;;-142.75;100.00;76887.22;5033288;28;20032;-66
2023/04/11 00:39:54;;;;;;;19.42;2.47;;;;;;;-142.75;100.00;76885.25;5033447;28;20029;-66
2023/04/11 00:42:19;;;;;;;14.75;2.38;;;;;;;-142.75;100.00;76897.06;5015490;28;20057;-66
2023/04/11 00:44:45;;;;;;;16.98;2.05;;;;;;;-142.75;100.00;76897.06;5033480;28;20076;-66
2023/04/11 00:47:11;;;;;;;20.77;3.25;;;;;;;-142.75;100.00;76893.13;5033205;28;20396;-66
2023/04/11 00:49:37;;;;;;;18.63;2.38;;;;;;;-142.75;100.00;76891.16;5033200;28;20453;-66
2023/04/11 00:52:03;;;;;;;17.50;2.55;;;;;;;-142.75;100.00;76901.00;5032950;28;20022;-66
2023/04/11 00:54:29;;;;;;;16.17;2.55;;;;;;;-142.75;100.00;76902.97;5015222;28;20024;-66
2023/04/11 00:56:57;;;;;;;15.40;2.33;;;;;;;-142.75;100.00;76897.06;5032959;28;20021;-66
2023/04/11 00:59:24;;;;;;;19.35;2.55;;;;;;;-142.75;100.00;76891.16;5032953;28;20385;-66
2023/04/11 01:01:49;;;;;;;15.20;2.03;;;;;;;-142.75;100.00;76904.94;5032821;28;20025;-66
2023/04/11 01:04:16;;;;;;;10.15;1.75;;;;;;;-142.75;100.00;76895.09;5015151;28;20036;-66
2023/04/11 01:06:46;;;;;;;14.98;2.28;;;;;;;-142.75;100.00;76901.00;5032794;28;20060;-66
2023/04/11 01:09:12;;;;;;;12.48;1.40;;;;;;;-142.75;100.00;76904.94;5032783;28;20079;-66
2023/04/11 01:11:38;;;;;;;10.23;2.28;;;;;;;-142.75;100.00;76906.91;5032764;28;20108;-66
2023/04/11 01:14:04;;;;;;;14.68;1.92;;;;;;;-142.75;100.00;76910.84;5032718;28;20086;-67
2023/04/11 01:16:29;;;;;;;11.65;1.83;;;;;;;-142.75;100.00;76906.91;5032586;28;20108;-66
2023/04/11 01:18:55;;;;;;;11.65;1.92;;;;;;;-142.75;100.00;76908.88;5032496;28;20024;-66
2023/04/11 01:21:21;;;;;;;15.60;3.90;;;;;;;-142.75;100.00;76910.84;5032644;28;20032;-67
2023/04/11 01:23:51;;;;;;;11.07;1.40;;;;;;;-142.75;100.00;76912.81;5032379;28;20018;-66
2023/04/11 01:26:17;;;;;;;13.68;2.47;;;;;;;-142.75;100.00;76910.84;5032411;28;20485;-66
2023/04/11 01:28:42;;;;;;;13.00;1.70;;;;;;;-142.75;100.00;76912.81;5032355;28;20042;-66
2023/04/11 01:31:07;;;;;;;12.13;2.10;;;;;;;-142.75;100.00;76912.81;5032438;28;20037;-66
2023/04/11 01:33:33;;;;;;;10.55;2.00;;;;;;;-142.75;100.00;76920.69;5032143;28;20424;-66
2023/04/11 01:35:58;;;;;;;18.73;2.22;;;;;;;-142.75;100.00;76932.50;5032239;28;20029;-66
2023/04/11 01:38:23;;;;;;;19.02;2.47;;;;;;;-142.75;100.00;76932.50;5014544;28;20027;-66
2023/04/11 01:40:50;;;;;;;14.00;2.13;;;;;;;-142.75;100.00;76932.50;5032284;28;20053;-66
2023/04/11 01:43:15;;;;;;;13.35;2.00;;;;;;;-142.75;100.00;76940.38;5032042;28;20036;-66
2023/04/11 01:45:41;;;;;;;10.88;2.33;;;;;;;-142.75;100.00;76948.25;5031553;28;20030;-66
2023/04/11 01:48:07;;;;;;;12.48;1.88;;;;;;;-142.75;100.00;76962.03;5031713;28;20030;-66
2023/04/11 01:50:32;;;;;;;17.27;2.58;;;;;;;-142.75;100.00;76960.06;5032129;28;20041;-66
2023/04/11 01:52:57;;;;;;;8.25;1.55;;;;;;;-142.75;100.00;76964.00;5031926;28;20485;-67
2023/04/11 01:55:23;;;;;;;10.40;1.92;;;;;;;-142.75;100.00;76969.91;5032088;28;20025;-66
2023/04/11 01:57:48;;;;;;;17.53;2.10;;;;;;;-142.75;100.00;76977.78;5031890;28;20025;-66
2023/04/11 02:00:14;;;;;;;13.32;1.98;;;;;;;-142.75;100.00;76997.47;5032009;28;20060;-66
2023/04/11 02:02:40;;;;;;;11.63;1.55;;;;;;;-142.75;100.00;77005.34;5031445;28;20033;-66
2023/04/11 02:05:06;;;;;;;7.65;1.58;;;;;;;-142.75;100.00;77011.25;5031946;28;20029;-66
2023/04/11 02:07:31;;;;;;;6.32;1.83;;;;;;;-142.75;100.00;77007.31;5031649;28;20052;-67
2023/04/11 02:09:57;;;;;;;5.53;1.13;;;;;;;-142.75;100.00;77021.09;5031800;28;20052;-66
2023/04/11 02:12:22;;;;;;;10.63;1.27;;;;;;;-142.75;100.00;77038.81;5031649;28;20397;-68
2023/04/11 02:14:48;;;;;;;13.07;1.60;;;;;;;-142.75;100.00;77038.81;5031777;28;20374;-69
2023/04/11 02:17:16;;;;;;;6.40;0.90;;;;;;;-142.75;100.00;77050.63;5031496;28;20029;-69
2023/04/11 02:19:44;;;;;;;4.93;1.17;;;;;;;-142.75;100.00;77050.63;5031728;28;20096;-68
2023/04/11 02:22:10;;;;;;;13.43;1.75;;;;;;;-142.75;100.00;77054.56;5031674;28;20032;-69
2023/04/11 02:24:36;;;;;;;7.70;1.00;;;;;;;-142.75;100.00;77054.56;5031622;28;20028;-69
2023/04/11 02:27:02;;;;;;;6.80;1.50;;;;;;;-142.75;100.00;77054.56;5031562;28;20029;-68
2023/04/11 02:29:28;;;;;;;5.23;1.83;;;;;;;-142.75;100.00;77048.66;5031494;28;20049;-69
2023/04/11 02:31:54;;;;;;;13.68;1.35;;;;;;;-142.75;100.00;77048.66;5031471;28;20432;-68
2023/04/11 02:34:19;;;;;;;10.63;1.27;;;;;;;-142.75;100.00;77054.56;5031514;28;20029;-68
2023/04/11 02:36:45;;;;;;;9.57;1.50;;;;;;;-142.75;100.00;77064.41;5013758;28;20087;-68
2023/04/11 02:39:11;;;;;;;6.45;1.90;;;;;;;-142.75;100.00;77058.50;5031474;28;20022;-68
2023/04/11 02:41:41;;;;;;;14.93;2.25;;;;;;;-142.75;100.00;77060.47;5013822;28;20456;-68
2023/04/11 02:44:09;;;;;;;10.27;1.60;;;;;;;-142.75;100.00;77066.38;5031467;28;20381;-68
2023/04/11 02:46:35;;;;;;;13.93;1.25;;;;;;;-142.75;100.00;77066.38;5031227;28;20096;-68
2023/04/11 02:49:00;;;;;;;7.68;1.58;;;;;;;-142.75;100.00;77068.34;5031355;28;20450;-68
2023/04/11 02:51:26;;;;;;;9.83;1.10;;;;;;;-142.75;100.00;77072.28;5013744;28;20481;-68
2023/04/11 02:53:51;;;;;;;11.47;1.30;;;;;;;-142.75;100.00;77070.31;5005211;28;20057;-68
2023/04/11 02:56:18;;;;;;;7.43;1.25;;;;;;;-142.75;100.00;77086.06;5011504;28;20037;-68
2023/04/11 02:58:46;;;;;;;10.18;1.35;;;;;;;-142.75;100.00;77086.06;5014993;28;20036;-68
2023/04/11 03:01:13;;;;;;;9.60;1.67;;;;;;;-142.75;100.00;77101.81;5015480;28;20080;-68
2023/04/11 03:03:39;;;;;;;13.60;1.97;;;;;;;-142.75;100.00;77101.81;5015121;28;20061;-68
2023/04/11 03:06:06;;;;;;;8.15;1.63;;;;;;;-142.75;100.00;77105.75;5015256;28;20034;-68
2023/04/11 03:08:31;;;;;;;8.27;1.63;;;;;;;-142.75;100.00;77113.63;5015313;28;20074;-68
2023/04/11 03:10:57;;;;;;;8.73;1.00;;;;;;;-142.75;100.00;77105.75;5015342;28;20021;-66
2023/04/11 03:13:22;;;;;;;14.47;1.83;;;;;;;-142.75;100.00;77125.44;5015019;28;20029;-66
2023/04/11 03:15:47;;;;;;;5.43;1.30;;;;;;;-142.75;100.00;77115.59;5015161;28;20045;-66
2023/04/11 03:18:13;;;;;;;6.43;0.90;;;;;;;-142.75;100.00;77121.50;5015053;28;20029;-66
2023/04/11 03:20:38;;;;;;;7.07;1.30;;;;;;;-142.75;100.00;77131.34;5015193;28;20442;-66
2023/04/11 03:23:03;;;;;;;15.70;1.40;;;;;;;-142.75;100.00;77127.41;5014818;28;20088;-67
2023/04/11 03:25:29;;;;;;;7.28;1.08;;;;;;;-142.75;100.00;77123.47;5015033;28;20026;-67
2023/04/11 03:27:54;;;;;;;5.23;1.10;;;;;;;-142.75;100.00;77131.34;4997083;28;20038;-67
2023/04/11 03:30:19;;;;;;;7.97;1.25;;;;;;;-142.75;100.00;77139.22;5014898;28;20030;-66
2023/04/11 03:32:44;;;;;;;4.82;1.10;;;;;;;-142.75;100.00;77145.13;5014667;28;20145;-66
2023/04/11 03:35:10;;;;;;;6.72;1.65;;;;;;;-142.75;100.00;77145.13;5014686;28;20033;-66
2023/04/11 03:37:35;;;;;;;4.72;0.80;;;;;;;-142.75;100.00;77149.06;5014681;28;20026;-66
2023/04/11 03:40:00;;;;;;;8.27;1.13;;;;;;;-142.75;100.00;77172.69;5014642;28;20405;-66
2023/04/11 03:42:26;;;;;;;7.77;1.13;;;;;;;-142.75;100.00;77164.81;5014522;28;20491;-67
2023/04/11 03:44:51;;;;;;;6.33;0.80;;;;;;;-142.75;100.00;77178.59;5014684;28;20099;-66
2023/04/11 03:47:16;;;;;;;6.00;1.17;;;;;;;-142.75;100.00;77196.31;5014337;28;20076;-67
2023/04/11 03:49:42;;;;;;;10.13;1.27;;;;;;;-142.75;100.00;77204.19;5014506;28;20033;-67
2023/04/11 03:52:08;;;;;;;8.40;0.90;;;;;;;-142.75;100.00;77216.00;5014420;28;20117;-68
2023/04/11 03:54:34;;;;;;;5.27;0.90;;;;;;;-142.75;100.00;77216.00;5014431;28;20026;-70
2023/04/11 03:56:59;;;;;;;6.23;1.10;;;;;;;-142.75;100.00;77221.91;5014346;28;20034;-69
2023/04/11 03:59:25;;;;;;;2.67;0.63;;;;;;;-142.75;100.00;77235.69;5014316;28;20018;-69
2023/04/11 04:01:50;;;;;;;7.87;1.47;;;;;;;-142.75;100.00;77231.75;5014166;28;20054;-70
2023/04/11 04:04:16;;;;;;;3.27;0.73;;;;;;;-142.75;100.00;77239.63;5014147;28;20444;-68
2023/04/11 04:06:41;;;;;;;9.10;1.23;;;;;;;-142.75;100.00;77247.50;5014151;28;20029;-68
2023/04/11 04:09:07;;;;;;;9.47;0.87;;;;;;;-142.75;100.00;77245.53;5013451;28;20048;-69
2023/04/11 04:11:32;;;;;;;9.70;1.57;;;;;;;-142.75;100.00;77263.25;5014105;28;20036;-69
2023/04/11 04:13:57;;;;;;;13.37;1.23;;;;;;;-142.75;100.00;77261.28;5013887;28;20026;-68
2023/04/11 04:16:23;;;;;;;8.47;1.10;;;;;;;-142.75;100.00;77271.13;5013933;28;20026;-69
2023/04/11 04:18:48;;;;;;;4.53;1.03;;;;;;;-142.75;100.00;77275.06;5013961;28;20022;-69
2023/04/11 04:21:14;;;;;;;5.67;0.90;;;;;;;-142.75;100.00;77277.03;5013972;28;20501;-68
2023/04/11 04:23:46;;;;;;;9.47;1.03;;;;;;;-142.75;100.00;77294.75;5013768;28;20018;-69
2023/04/11 04:26:14;;;;;;;6.63;0.90;;;;;;;-142.75;100.00;77277.03;5013555;28;20105;-68
2023/04/11 04:28:44;;;;;;;3.27;0.63;;;;;;;-142.75;100.00;77275.06;5013574;28;20014;-68
2023/04/11 04:31:11;;;;;;;8.67;1.00;;;;;;;-142.75;100.00;77290.81;5013826;28;20033;-68
2023/04/11 04:33:36;;;;;;;12.27;1.00;;;;;;;-142.75;100.00;77290.81;5013624;28;20021;-68
2023/04/11 04:36:03;;;;;;;8.93;1.10;;;;;;;-142.75;100.00;77302.63;4995968;28;20482;-69
2023/04/11 04:38:29;;;;;;;7.57;1.40;;;;;;;-142.75;100.00;77296.72;5013616;28;20496;-68
2023/04/11 04:40:55;;;;;;;5.13;1.10;;;;;;;-142.75;100.00;77298.69;5013533;28;20064;-68
2023/04/11 04:43:22;;;;;;;8.03;0.83;;;;;;;-142.75;100.00;77292.78;4995515;28;20058;-68
2023/04/11 04:45:47;;;;;;;5.60;1.03;;;;;;;-142.75;100.00;77294.75;5013489;28;20028;-68
2023/04/11 04:48:13;;;;;;;5.07;0.90;;;;;;;-142.75;100.00;77292.78;5012920;28;20034;-68
2023/04/11 04:50:39;;;;;;;3.40;1.00;;;;;;;-142.75;100.00;77310.50;5013245;28;20029;-69
2023/04/11 04:53:05;;;;;;;7.60;0.93;;;;;;;-142.75;100.00;77306.56;5013035;28;20452;-68
2023/04/11 04:55:30;;;;;;;6.30;1.00;;;;;;;-142.75;100.00;77294.75;5013182;28;20069;-69
2023/04/11 04:57:56;;;;;;;10.87;1.20;;;;;;;-142.75;100.00;77300.66;5013113;28;20049;-68
2023/04/11 05:00:21;;;;;;;9.37;1.30;;;;;;;-142.75;100.00;77294.75;5013280;28;20022;-68
2023/04/11 05:02:46;;;;;;;5.80;0.97;;;;;;;-142.75;100.00;77279.00;5012837;28;20450;-68
2023/04/11 05:05:12;;;;;;;7.77;1.60;;;;;;;-142.75;100.00;77277.03;5013204;28;20402;-69
2023/04/11 05:07:38;;;;;;;3.50;0.90;;;;;;;-142.75;100.00;77280.97;5012916;28;20025;-68
2023/04/11 05:10:04;;;;;;;8.67;1.23;;;;;;;-142.75;100.00;77255.38;5013051;28;20112;-68
2023/04/11 05:12:29;;;;;;;8.17;1.10;;;;;;;-142.75;100.00;77259.31;5012815;28;20021;-69
2023/04/11 05:14:55;;;;;;;5.93;1.43;;;;;;;-142.75;100.00;77259.31;5013008;28;20408;-69
2023/04/11 05:17:22;;;;;;;8.47;1.83;;;;;;;-142.75;100.00;77249.47;5012883;28;20017;-69
2023/04/11 05:19:47;;;;;;;9.70;1.30;;;;;;;-142.75;100.00;77245.53;5012754;28;20371;-68
2023/04/11 05:22:12;;;;;;;12.90;2.23;;;;;;;-142.75;100.00;77251.44;5011961;28;20112;-68
2023/04/11 05:24:38;;;;;;;7.10;1.23;;;;;;;-142.75;100.00;77247.50;5012823;28;20022;-68
2023/04/11 05:27:03;;;;;;;4.70;1.08;;;;;;;-142.75;100.00;77241.59;5012664;28;20037;-68
2023/04/11 05:29:28;;;;;;;6.57;1.60;;;;;;;-142.75;100.00;77243.56;5012603;28;20390;-68
2023/04/11 05:31:54;;;;;;;9.02;1.73;;;;;;;-142.75;100.00;77243.56;5012637;28;20109;-68
2023/04/11 05:34:19;;;;;;;17.15;1.00;;;;;;;-142.75;100.00;77239.63;5012668;28;20049;-69
2023/04/11 05:36:46;;;;;;;7.07;0.90;;;;;;;-142.75;100.00;77229.78;5012736;28;20022;-68
2023/04/11 05:39:11;;;;;;;9.38;1.60;;;;;;;-142.75;100.00;77247.50;5012550;28;20504;-68
2023/04/11 05:41:37;;;;;;;7.30;1.02;;;;;;;-142.75;100.00;77229.78;5012636;28;20041;-68
2023/04/11 05:44:02;;;;;;;11.50;1.65;;;;;;;-142.75;100.00;77221.91;5012429;28;20060;-68
2023/04/11 05:46:28;;;;;;;18.27;2.00;;;;;;;-142.75;100.00;77229.78;5012632;28;20041;-69
2023/04/11 05:48:56;;;;;;;19.80;2.33;;;;;;;-142.75;100.00;77233.72;5012327;28;20425;-68
2023/04/11 05:51:22;;;;;;;8.83;1.37;;;;;;;-142.75;100.00;77210.09;5012419;28;20044;-67
2023/04/11 05:53:47;;;;;;;10.60;1.52;;;;;;;-142.75;100.00;77200.25;5012270;28;20030;-68
2023/04/11 05:56:12;;;;;;;8.60;1.53;;;;;;;-142.75;100.00;77192.38;5012136;28;20458;-67
2023/04/11 05:58:38;;;;;;;11.55;1.55;;;;;;;-142.75;100.00;77190.41;5012292;28;20021;-68
2023/04/11 06:01:06;;;;;;;8.40;1.38;;;;;;;-142.75;100.00;77184.50;5012307;28;20042;-67
2023/04/11 06:03:31;;;;;;;13.50;2.17;;;;;;;-142.75;100.00;77162.84;5012425;28;20034;-67
2023/04/11 06:05:56;;;;;;;10.40;2.17;;;;;;;-142.75;100.00;77135.28;5011976;28;20026;-67
2023/04/11 06:08:21;;;;;;;8.27;1.77;;;;;;;-142.75;100.00;77129.38;5012010;28;20478;-67
2023/04/11 06:10:47;;;;;;;7.30;1.50;;;;;;;-142.75;100.00;77123.47;5012088;28;20401;-69
2023/04/11 06:13:12;;;;;;;7.53;1.30;;;;;;;-142.75;100.00;77156.94;4994306;28;20398;-67
2023/04/11 06:15:38;;;;;;;12.55;1.27;;;;;;;-142.75;100.00;77133.31;5012057;28;20374;-68
2023/04/11 06:18:03;;;;;;;10.57;1.48;;;;;;;-142.75;100.00;77129.38;5008353;28;20069;-68
2023/04/11 06:20:28;;;;;;;10.77;1.50;;;;;;;-142.75;100.00;77149.06;5012378;28;20050;-67
2023/04/11 06:22:54;;;;;;;8.18;1.58;;;;;;;-142.75;100.00;77141.19;4991667;28;20553;-68
2023/04/11 06:25:20;;;;;;;8.25;1.40;;;;;;;-142.75;100.00;77133.31;5011825;28;20148;-67
2023/04/11 06:27:46;;;;;;;8.00;1.42;;;;;;;-142.75;100.00;77158.91;4988979;28;20027;-66
2023/04/11 06:30:12;;;;;;;12.65;2.22;;;;;;;-142.75;100.00;77168.75;5011494;28;20024;-67
2023/04/11 06:32:37;;;;;;;7.95;1.10;;;;;;;-142.75;100.00;77166.78;5001106;28;20694;-66
2023/04/11 06:35:04;;;;;;;5.45;0.98;;;;;;;-142.75;100.00;77164.81;5004760;28;20457;-67
2023/04/11 06:37:30;;;;;;;9.15;1.13;;;;;;;-142.75;100.00;77188.44;4984133;28;20018;-67
2023/04/11 06:39:55;;;;;;;7.35;1.15;;;;;;;-142.75;100.00;77176.63;5006469;28;20013;-67
2023/04/11 06:42:20;;;;;;;13.63;1.38;;;;;;;-142.75;100.00;77131.34;5002948;28;20041;-66
2023/04/11 06:44:47;;;;;;;11.10;1.73;;;;;;;-142.75;100.00;77086.06;5006387;28;20053;-66
2023/04/11 06:47:12;;;;;;;9.45;1.60;;;;;;;-142.75;100.00;77097.88;5007261;28;20030;-68
2023/04/11 06:49:37;;;;;;;9.00;1.52;;;;;;;-142.75;100.00;77090.00;4988658;28;20069;-66
2023/04/11 06:52:03;;;;;;;9.82;1.70;;;;;;;-142.75;100.00;77048.66;5003899;28;20103;-67
2023/04/11 06:54:28;;;;;;;12.50;2.08;;;;;;;-142.75;100.00;77070.31;5001394;28;20409;-67
2023/04/11 06:56:56;;;;;;;8.77;1.55;;;;;;;-142.75;100.00;77082.13;5006016;28;20034;-67
2023/04/11 06:59:21;;;;;;;12.48;1.35;;;;;;;-142.75;100.00;77088.03;5002551;28;20041;-67
2023/04/11 07:01:48;;;;;;;11.10;1.50;;;;;;;-142.75;100.00;77133.31;5007728;28;20074;-67
2023/04/11 07:04:13;;;;;;;9.10;1.60;;;;;;;-142.75;100.00;77143.16;5002300;28;20113;-67
2023/04/11 07:06:38;;;;;;;4.00;1.25;;;;;;;-142.75;100.00;77147.09;5012675;28;20108;-67
2023/04/11 07:09:04;;;;;;;8.15;0.93;;;;;;;-142.75;100.00;77158.91;4992136;28;20060;-67
2023/04/11 07:11:30;;;;;;;6.75;1.77;;;;;;;-142.75;100.00;77151.03;5006343;28;20046;-67
2023/04/11 07:13:56;;;;;;;6.13;1.00;;;;;;;-142.75;100.00;77158.91;5008176;28;20105;-67
2023/04/11 07:16:21;;;;;;;6.00;1.40;;;;;;;-142.75;100.00;77170.72;5003874;28;20049;-67
2023/04/11 07:18:47;;;;;;;6.57;1.52;;;;;;;-142.75;100.00;77172.69;5005285;28;20014;-66
2023/04/11 07:21:13;;;;;;;12.23;1.52;;;;;;;-142.75;100.00;77206.16;5005914;28;20076;-66
2023/04/11 07:23:39;;;;;;;9.85;1.88;;;;;;;-142.75;100.00;77212.06;5005796;28;20025;-67
2023/04/11 07:26:07;;;;;;;9.73;1.30;;;;;;;-142.75;100.00;77164.81;5008329;28;20385;-67
2023/04/11 07:28:33;;;;;;;7.88;1.40;;;;;;;-142.75;100.00;77038.81;5017788;28;20026;-66
2023/04/11 07:30:59;;;;;;;8.23;1.55;;;;;;;-142.75;100.00;77015.19;5018214;28;20022;-67
2023/04/11 07:33:25;;;;;;;9.57;1.10;;;;;;;-142.75;100.00;76981.72;5000692;28;20511;-67
2023/04/11 07:35:50;;;;;;;9.73;2.30;;;;;;;-142.75;100.00;76985.66;5018362;28;20119;-68
2023/04/11 07:38:26;;;;;;;8.70;1.02;;;;;;;-142.75;100.00;77027.00;4999937;28;20025;-68
2023/04/11 07:40:51;;;;;;;8.10;1.25;;;;;;;-142.75;100.00;77036.84;5004120;28;20081;-67
2023/04/11 07:43:17;;;;;;;5.25;1.25;;;;;;;-142.75;100.00;77015.19;4992417;28;20429;-68
2023/04/11 07:45:42;;;;;;;8.18;1.33;;;;;;;-142.75;100.00;76999.44;4997134;28;20018;-68
2023/04/11 07:48:07;;;;;;;7.80;1.30;;;;;;;-142.75;100.00;76979.75;5014503;28;20049;-68
2023/04/11 07:50:32;;;;;;;8.82;1.30;;;;;;;-142.75;100.00;76926.59;5014799;28;20053;-68
2023/04/11 07:52:58;;;;;;;12.40;1.70;;;;;;;-142.75;100.00;76987.63;5014579;28;20033;-68
2023/04/11 07:55:23;;;;;;;11.90;1.40;;;;;;;-142.75;100.00;76987.63;5014545;28;20160;-67
2023/04/11 07:57:48;;;;;;;7.43;1.38;;;;;;;-142.75;100.00;76975.81;5014362;28;20030;-69
2023/04/11 08:00:21;;;;;;;6.70;1.50;;;;;;;-142.75;100.00;77015.19;5014744;28;20105;-70
2023/04/11 08:02:47;;;;;;;6.20;1.33;;;;;;;-142.75;100.00;76983.69;5014577;28;20397;-70
2023/04/11 08:05:12;;;;;;;14.40;1.63;;;;;;;-142.75;100.00;76962.03;5014107;28;20030;-70
2023/04/11 08:07:37;;;;;;;7.28;1.45;;;;;;;-142.75;100.00;76928.56;5014217;28;20392;-70
2023/04/11 08:10:04;;;;;;;13.32;1.90;;;;;;;-142.75;100.00;76875.41;5014272;28;20569;-68
2023/04/11 08:12:29;;;;;;;6.28;1.38;;;;;;;-142.75;100.00;76863.59;5013899;28;20054;-69
2023/04/11 08:14:54;;;;;;;7.20;1.38;;;;;;;-142.75;100.00;76875.41;5010424;28;20050;-69
2023/04/11 08:17:20;;;;;;;9.05;1.25;;;;;;;-142.75;100.00;76901.00;4994418;28;20024;-71
2023/04/11 08:19:45;;;;;;;5.68;0.88;;;;;;;-142.75;100.00;76887.22;4994486;28;20390;-69
2023/04/11 08:22:10;;;;;;;8.77;1.42;;;;;;;-142.75;100.00;76865.56;4976871;28;20045;-68
2023/04/11 08:24:36;;;;;;;6.70;1.58;;;;;;;-142.75;100.00;76885.25;4994232;28;20022;-70
2023/04/11 08:27:01;;;;;;;9.15;1.27;;;;;;;-142.75;100.00;76841.94;4994140;28;20065;-69
2023/04/11 08:29:26;;;;;;;11.20;1.48;;;;;;;-142.75;100.00;76798.66;4976749;28;20520;-69
2023/04/11 08:31:52;;;;;;;12.80;1.92;;;;;;;-142.75;100.00;76814.38;4994207;28;20093;-68
2023/04/11 08:34:17;;;;;;;14.02;1.08;;;;;;;-142.75;100.00;76767.16;4993996;28;20022;-69
2023/04/11 08:36:42;;;;;;;9.65;1.30;;;;;;;-142.75;98.60;76788.81;4994121;28;20050;-69
2023/04/11 08:39:08;;;;;;;12.10;1.73;;;;;;;-142.75;99.65;76875.41;4993619;28;20101;-69
2023/04/11 08:41:34;;;;;;;6.93;1.25;;;;;;;-142.75;98.71;76916.75;4994089;28;20030;-69
2023/04/11 08:44:00;;;;;;;10.80;1.60;;;;;;;-142.75;100.00;76920.69;4993965;28;20109;-68
2023/04/11 08:46:25;;;;;;;8.88;1.20;;;;;;;-142.75;100.00;76936.44;4976410;28;20126;-69
2023/04/11 08:48:50;;;;;;;5.78;0.80;;;;;;;-142.75;100.00;76989.59;4976380;28;20547;-69
2023/04/11 08:51:25;;;;;;;6.40;0.80;;;;;;;-142.75;100.00;76889.19;4996278;28;20033;-69
2023/04/11 08:53:52;;;;;;;8.43;1.10;;;;;;;-142.75;98.50;76857.69;4993661;28;20030;-68
2023/04/11 08:56:18;;;;;;;3.78;1.27;;;;;;;-142.75;91.25;76964.00;4996578;28;20025;-72
2023/04/11 08:58:43;;;;;;;7.82;1.05;;;;;;;-142.75;91.20;77034.88;5001828;28;20394;-68
2023/04/11 09:01:26;;;;;;;3.50;0.95;;;;;;;-142.75;92.85;76993.53;5011961;28;20022;-68
2023/04/11 09:03:52;;;;;;;7.50;0.82;;;;;;;-142.75;90.53;76981.72;5001984;28;20116;-67
2023/04/11 09:06:17;;;;;;;3.95;0.75;;;;;;;-142.75;90.49;76928.56;5003524;28;20505;-68
2023/04/11 09:08:42;;;;;;;8.82;0.90;;;;;;;-142.75;89.55;76879.34;5012178;28;20044;-67
2023/04/11 09:11:07;;;;;;;3.67;0.85;;;;;;;-142.75;86.59;76871.47;5007919;28;20026;-68
2023/04/11 09:13:33;;;;;;;5.93;0.75;;;;;;;-142.75;86.73;76810.44;5005541;28;20018;-68
2023/04/11 09:16:02;;;;;;;5.38;1.10;;;;;;;-142.75;82.36;76788.81;5004396;28;20390;-67
2023/04/11 09:18:32;;;;;;;8.38;1.33;;;;;;;-142.75;80.70;76759.28;5003248;28;20117;-67
2023/04/11 09:21:04;;;;;;;8.18;1.35;;;;;;;-142.75;80.38;76708.09;5003707;28;20157;-68
2023/04/11 09:23:29;;;;;;;6.13;1.05;;;;;;;-142.75;79.58;76700.22;5000845;28;20014;-66
2023/04/11 09:25:55;;;;;;;5.95;1.00;;;;;;;-142.75;78.65;76729.75;4975167;28;20518;-67
2023/04/11 09:28:21;;;;;;;8.15;0.73;;;;;;;-142.75;78.25;76672.66;4991152;28;20509;-68
2023/04/11 09:30:51;;;;;;;6.35;0.85;;;;;;;-142.75;77.41;76712.03;4991334;28;20105;-67
2023/04/11 09:33:21;;;;;;;3.78;0.90;;;;;;;-142.75;79.54;76668.72;4974948;28;20058;-67
2023/04/11 09:35:51;;;;;;;2.70;0.60;;;;;;;-142.75;74.71;76714.00;4992394;28;20030;-68
2023/04/11 09:38:35;;;;;;;9.23;0.85;;;;;;;-142.75;76.95;76733.69;4992932;28;20426;-68
2023/04/11 09:41:02;;;;;;;9.35;1.35;;;;;;;-142.75;78.36;76649.03;4993128;28;20084;-66
2023/04/11 09:43:49;;;;;;;3.65;0.82;;;;;;;-142.75;76.25;76704.16;4992767;28;20022;-67
2023/04/11 09:46:17;;;;;;;7.80;0.70;;;;;;;-142.75;76.94;76710.06;4992915;28;20426;-66
2023/04/11 09:48:43;;;;;;;2.80;0.88;;;;;;;-142.75;77.09;76660.84;4992926;28;20033;-66
2023/04/11 09:51:09;;;;;;;3.05;0.65;;;;;;;-142.75;77.47;76649.03;4975417;28;20166;-67
2023/04/11 09:53:36;;;;;;;9.93;1.33;;;;;;;-142.75;75.54;76599.81;4992751;28;20386;-67
2023/04/11 09:56:02;;;;;;;3.58;0.98;;;;;;;-142.75;76.25;76530.91;4992468;28;20102;-68
2023/04/11 09:58:32;;;;;;;10.95;1.40;;;;;;;-142.75;74.96;76570.28;4992686;28;20505;-68
2023/04/11 10:00:59;;;;;;;3.83;1.00;;;;;;;-142.75;74.93;76550.59;4992729;28;20067;-67
2023/04/11 10:03:25;;;;;;;7.35;1.00;;;;;;;-142.75;72.97;76625.41;4974288;28;20095;-66
2023/04/11 10:05:54;;;;;;;9.18;1.85;;;;;;;-142.75;71.72;76588.00;4992416;28;20026;-67
2023/04/11 10:08:31;;;;;;;9.13;1.63;;;;;;;-142.75;72.29;76542.72;4991826;28;20019;-68
2023/04/11 10:10:58;;;;;;;4.30;1.17;;;;;;;-142.75;73.08;76550.59;4992584;28;20064;-67
2023/04/11 10:13:42;;;;;;;10.18;1.02;;;;;;;-142.75;73.27;76550.59;4994903;28;20119;-67
2023/04/11 10:16:19;;;;;;;2.70;0.70;;;;;;;-142.75;69.99;76586.03;4998546;28;20018;-67
2023/04/11 10:18:53;;;;;;;;;;;;;;;-142.75;68.96;76623.44;4994458;28;20101;-67
2023/04/11 10:21:33;;;;;;;5.38;0.98;;;;;;;-142.75;71.10;76586.03;4992384;28;19909;-67
2023/04/11 10:24:20;;;;;;;10.48;1.10;;;;;;;-142.75;71.23;76515.19;4992217;28;20401;-66
2023/04/11 10:27:02;;;;;;;6.20;0.85;;;;;;;-142.75;70.24;76509.28;4992101;28;20085;-66
2023/04/11 10:29:28;;;;;;;21.38;2.58;;;;;;;-142.75;70.24;76540.75;4992280;28;20388;-67
2023/04/11 10:32:12;;;;;;;7.72;1.30;;;;;;;-142.75;69.96;76497.47;4991938;28;20034;-67
2023/04/11 10:34:39;;;;;;;19.58;3.28;;;;;;;-142.75;71.78;76497.47;5007217;28;20028;-67
2023/04/11 10:37:08;;;;;;;16.45;2.17;;;;;;;-142.75;69.27;76473.84;5008117;28;20113;-66
2023/04/11 10:39:49;;;;;;;12.57;1.55;;;;;;;-142.75;69.04;76458.09;5000394;28;20109;-67
2023/04/11 10:42:34;;;;;;;5.93;1.23;;;;;;;-142.75;67.97;76495.50;4999533;28;20023;-67
2023/04/11 10:45:17;;;;;;;8.48;1.52;;;;;;;-142.75;69.32;76481.72;4992245;28;20106;-68
2023/04/11 10:48:00;;;;;;;4.07;0.80;;;;;;;-142.75;70.45;76438.41;5008473;28;20045;-68
2023/04/11 10:50:26;;;;;;;7.57;0.98;;;;;;;-142.75;69.13;76444.31;5007838;28;20092;-67
2023/04/11 10:53:08;;;;;;;8.88;1.17;;;;;;;-142.75;71.56;76391.16;5009360;28;20521;-67
2023/04/11 10:55:48;;;;;;;7.50;1.10;;;;;;;-142.75;69.12;76475.81;5003680;28;20038;-68
2023/04/11 10:58:15;;;;;;;7.25;0.88;;;;;;;-142.75;70.09;76550.59;5010032;28;20482;-67
2023/04/11 11:00:50;;;;;;;6.93;1.70;;;;;;;-142.75;73.60;76532.88;5011678;28;20026;-66
2023/04/11 11:03:20;;;;;;;9.52;1.60;;;;;;;-142.75;74.56;76479.75;5010999;28;20040;-68
2023/04/11 11:05:46;;;;;;;9.07;1.27;;;;;;;-142.75;74.90;76454.16;5007810;28;20494;-67
2023/04/11 11:08:12;;;;;;;6.07;1.23;;;;;;;-142.75;71.68;76408.88;4997677;28;20023;-66